createdAt,value
2023-03-29T00:01:42.749Z,101686.78
2023-03-29T00:04:10.575Z,101678.09
2023-03-29T00:06:38.091Z,101679.84
2023-03-29T00:09:09.821Z,101680.81
2023-03-29T00:11:37.025Z,101683.38
2023-03-29T00:14:04.121Z,101678.28
2023-03-29T00:20:24.123Z,101657.50
2023-03-29T00:22:51.322Z,101649.50
2023-03-29T00:25:18.340Z,101645.88
2023-03-29T00:27:45.762Z,101644.16
2023-03-29T00:30:12.966Z,101647.66
2023-03-29T00:39:24.665Z,101637.16
2023-03-29T00:41:51.802Z,101638.16
2023-03-29T00:44:37.524Z,101637.56
2023-03-29T00:47:04.627Z,101639.19
2023-03-29T00:49:31.523Z,101640.97
2023-03-29T00:51:58.528Z,101642.66
2023-03-29T00:54:26.410Z,101631.16
2023-03-29T00:56:53.843Z,101636.38
2023-03-29T00:59:24.692Z,101644.28
2023-03-29T01:02:00.076Z,101635.69
2023-03-29T01:04:37.151Z,101635.63
2023-03-29T01:07:41.830Z,101639.09
2023-03-29T01:10:09.720Z,101634.81
2023-03-29T01:12:40.484Z,101637.38
2023-03-29T01:15:11.968Z,101629.53
2023-03-29T01:18:06.557Z,101632.13
2023-03-29T01:20:49.235Z,101634.75
2023-03-29T01:23:16.237Z,101631.25
2023-03-29T01:25:54.249Z,101637.31
2023-03-29T01:28:23.791Z,101629.44
2023-03-29T01:31:12.168Z,101625.00
2023-03-29T01:33:48.879Z,101621.38
2023-03-29T01:36:23.618Z,101615.13
2023-03-29T01:39:05.163Z,101614.25
2023-03-29T01:41:39.953Z,101611.53
2023-03-29T01:44:10.028Z,101619.16
2023-03-29T01:46:44.962Z,101616.38
2023-03-29T01:49:19.621Z,101622.50
2023-03-29T01:51:53.519Z,101616.22
2023-03-29T01:54:26.531Z,101609.78
2023-03-29T01:56:57.498Z,101607.72
2023-03-29T01:59:29.130Z,101608.56
2023-03-29T02:02:02.029Z,101611.28
2023-03-29T02:04:31.623Z,101606.06
2023-03-29T02:07:00.873Z,101590.25
2023-03-29T02:09:29.713Z,101588.31
2023-03-29T02:11:59.844Z,101591.44
2023-03-29T02:14:26.991Z,101593.91
2023-03-29T02:16:54.039Z,101588.53
2023-03-29T02:19:24.262Z,101593.66
2023-03-29T02:22:04.233Z,101584.06
2023-03-29T02:24:35.032Z,101585.72
2023-03-29T02:27:02.684Z,101576.81
2023-03-29T02:29:29.952Z,101579.31
2023-03-29T02:32:15.320Z,101581.75
2023-03-29T02:34:47.910Z,101581.56
2023-03-29T02:37:19.738Z,101580.69
2023-03-29T02:39:48.791Z,101581.31
2023-03-29T02:42:17.981Z,101575.28
2023-03-29T02:44:45.705Z,101586.69
2023-03-29T02:47:18.790Z,101593.00
2023-03-29T02:49:45.866Z,101592.28
2023-03-29T02:52:16.277Z,101592.28
2023-03-29T02:54:46.245Z,101586.97
2023-03-29T02:57:13.675Z,101582.47
2023-03-29T02:59:44.216Z,101584.13
2023-03-29T03:02:15.337Z,101585.78
2023-03-29T03:05:35.469Z,101585.81
2023-03-29T03:08:03.182Z,101552.78
2023-03-29T03:10:30.416Z,101574.97
2023-03-29T03:16:53.089Z,101575.28
2023-03-29T03:19:23.664Z,101580.28
2023-03-29T03:21:51.919Z,101585.47
2023-03-29T03:24:18.965Z,101575.75
2023-03-29T03:26:46.735Z,101569.03
2023-03-29T03:29:15.958Z,101571.72
2023-03-29T03:31:55.927Z,101560.25
2023-03-29T03:35:01.583Z,101556.22
2023-03-29T03:37:47.505Z,101548.09
2023-03-29T03:40:17.552Z,101553.25
2023-03-29T03:42:44.919Z,101556.84
2023-03-29T03:45:12.392Z,101554.16
2023-03-29T03:48:02.481Z,101558.88
2023-03-29T03:50:48.012Z,101554.38
2023-03-29T03:53:15.305Z,101556.78
2023-03-29T03:56:14.295Z,101555.78
2023-03-29T03:58:59.876Z,101557.41
2023-03-29T04:01:28.573Z,101550.38
2023-03-29T04:04:19.953Z,101545.81
2023-03-29T04:11:00.148Z,101555.25
2023-03-29T04:13:35.043Z,101560.41
2023-03-29T04:16:28.750Z,101560.34
2023-03-29T04:22:54.723Z,101540.00
2023-03-29T04:25:22.650Z,101546.81
2023-03-29T04:28:11.103Z,101547.56
2023-03-29T04:30:48.400Z,101547.44
2023-03-29T04:33:32.532Z,101556.84
2023-03-29T04:42:52.013Z,101556.84
2023-03-29T04:45:20.306Z,101546.59
2023-03-29T04:48:09.743Z,101551.06
2023-03-29T04:50:48.263Z,101550.09
2023-03-29T04:53:19.076Z,101564.94
2023-03-29T04:55:48.227Z,101558.06
2023-03-29T04:58:26.124Z,101549.41
2023-03-29T05:04:50.068Z,101560.09
2023-03-29T05:07:21.704Z,101565.22
2023-03-29T05:09:50.096Z,101577.44
2023-03-29T05:12:18.609Z,101565.31
2023-03-29T05:15:14.457Z,101561.94
2023-03-29T05:21:00.896Z,101554.91
2023-03-29T05:23:36.191Z,101564.34
2023-03-29T05:26:23.585Z,101569.63
2023-03-29T05:29:01.070Z,101567.00
2023-03-29T05:31:33.047Z,101563.66
2023-03-29T05:34:00.783Z,101557.34
2023-03-29T05:36:29.795Z,101564.41
2023-03-29T05:38:57.357Z,101562.28
2023-03-29T05:41:28.709Z,101556.84
2023-03-29T05:44:25.064Z,101570.56
2023-03-29T05:46:58.295Z,101565.16
2023-03-29T05:49:27.863Z,101571.44
2023-03-29T05:52:25.258Z,101565.28
2023-03-29T05:54:57.912Z,101561.78
2023-03-29T05:57:27.114Z,101559.94
2023-03-29T05:59:55.114Z,101571.06
2023-03-29T06:02:23.823Z,101565.09
2023-03-29T06:04:54.588Z,101560.47
2023-03-29T06:07:25.244Z,101555.34
2023-03-29T06:10:18.777Z,101547.59
2023-03-29T06:12:50.443Z,101548.44
2023-03-29T06:15:21.635Z,101544.31
2023-03-29T06:17:58.355Z,101541.91
2023-03-29T06:20:25.422Z,101551.50
2023-03-29T06:22:58.677Z,101536.06
2023-03-29T06:25:26.280Z,101545.03
2023-03-29T06:27:54.523Z,101552.09
2023-03-29T06:30:21.486Z,101555.78
2023-03-29T06:32:51.919Z,101556.84
2023-03-29T06:35:57.829Z,101550.13
2023-03-29T06:38:28.789Z,101560.75
2023-03-29T06:41:04.495Z,101541.53
2023-03-29T06:44:04.367Z,101550.75
2023-03-29T06:46:35.896Z,101556.22
2023-03-29T06:52:43.736Z,101570.28
2023-03-29T06:55:12.217Z,101567.88
2023-03-29T06:57:40.261Z,101566.25
2023-03-29T07:00:16.097Z,101570.00
2023-03-29T07:03:20.244Z,101578.25
2023-03-29T07:05:52.365Z,101565.25
2023-03-29T07:08:22.733Z,101569.69
2023-03-29T07:10:56.167Z,101566.41
2023-03-29T07:13:29.184Z,101559.88
2023-03-29T07:15:58.745Z,101558.63
2023-03-29T07:18:45.723Z,101550.19
2023-03-29T07:21:21.351Z,101547.94
2023-03-29T07:23:48.506Z,101556.41
2023-03-29T07:29:50.229Z,101560.03
2023-03-29T07:32:18.853Z,101562.00
2023-03-29T07:34:48.514Z,101559.88
2023-03-29T07:37:26.922Z,101558.50
2023-03-29T07:39:56.923Z,101558.75
2023-03-29T07:42:37.116Z,101553.81
2023-03-29T07:45:05.218Z,101558.47
2023-03-29T07:47:38.719Z,101555.16
2023-03-29T07:50:07.643Z,101557.97
2023-03-29T07:52:54.529Z,101556.47
2023-03-29T07:55:22.358Z,101558.41
2023-03-29T07:57:57.427Z,101562.06
2023-03-29T08:00:25.219Z,101567.44
2023-03-29T08:03:13.446Z,101565.03
2023-03-29T08:09:29.335Z,101565.34
2023-03-29T08:11:57.704Z,101562.88
2023-03-29T08:14:31.535Z,101566.47
2023-03-29T08:17:11.430Z,101570.09
2023-03-29T08:19:50.654Z,101559.09
2023-03-29T08:22:24.790Z,101557.44
2023-03-29T08:25:12.646Z,101556.78
2023-03-29T08:27:45.207Z,101557.75
2023-03-29T08:30:15.914Z,101558.91
2023-03-29T08:32:44.883Z,101557.28
2023-03-29T08:35:13.399Z,101559.34
2023-03-29T08:37:51.701Z,101558.75
2023-03-29T08:40:31.192Z,101558.00
2023-03-29T08:43:17.226Z,101548.50
2023-03-29T08:46:34.288Z,101547.16
2023-03-29T08:49:13.535Z,101557.84
2023-03-29T08:51:45.622Z,101557.06
2023-03-29T08:54:16.011Z,101552.06
2023-03-29T08:57:38.529Z,101552.50
2023-03-29T09:00:35.087Z,101537.94
2023-03-29T09:03:03.264Z,101532.66
2023-03-29T09:05:34.676Z,101526.66
2023-03-29T09:08:13.781Z,101523.13
2023-03-29T09:10:44.516Z,101529.31
2023-03-29T09:13:21.126Z,101532.84
2023-03-29T09:15:52.919Z,101530.28
2023-03-29T09:18:56.433Z,101533.88
2023-03-29T09:25:25.965Z,101530.63
2023-03-29T09:28:06.673Z,101534.19
2023-03-29T09:30:48.744Z,101527.25
2023-03-29T09:40:38.696Z,101514.25
2023-03-29T09:43:15.748Z,101511.63
2023-03-29T09:45:44.034Z,101521.34
2023-03-29T09:48:15.154Z,101525.84
2023-03-29T09:50:48.558Z,101514.34
2023-03-29T09:56:56.332Z,101507.31
2023-03-29T09:59:43.026Z,101511.72
2023-03-29T10:02:13.075Z,101505.59
2023-03-29T10:04:42.306Z,101503.81
2023-03-29T10:07:17.047Z,101496.72
2023-03-29T10:16:56.195Z,101487.72
2023-03-29T10:19:35.145Z,101482.28
2023-03-29T10:22:04.731Z,101477.72
2023-03-29T10:24:31.892Z,101469.66
2023-03-29T10:27:02.026Z,101466.13
2023-03-29T10:29:36.531Z,101467.75
2023-03-29T10:32:13.942Z,101469.34
2023-03-29T10:34:41.743Z,101471.88
2023-03-29T10:37:12.080Z,101469.22
2023-03-29T10:39:40.011Z,101474.56
2023-03-29T10:42:08.744Z,101465.69
2023-03-29T10:44:36.887Z,101468.31
2023-03-29T10:47:16.239Z,101455.69
2023-03-29T10:49:45.001Z,101459.22
2023-03-29T10:52:13.984Z,101459.13
2023-03-29T10:54:41.049Z,101459.03
2023-03-29T10:57:14.003Z,101463.25
2023-03-29T10:59:41.286Z,101455.13
2023-03-29T11:02:14.594Z,101460.28
2023-03-29T11:04:44.716Z,101452.13
2023-03-29T11:07:30.036Z,101445.13
2023-03-29T11:10:18.650Z,101436.16
2023-03-29T11:12:48.716Z,101448.59
2023-03-29T11:15:15.819Z,101458.47
2023-03-29T11:17:42.870Z,101447.91
2023-03-29T11:20:28.643Z,101439.91
2023-03-29T11:23:16.699Z,101442.34
2023-03-29T11:25:47.497Z,101445.69
2023-03-29T11:28:26.857Z,101446.28
2023-03-29T11:31:03.512Z,101445.28
2023-03-29T11:33:37.927Z,101434.50
2023-03-29T11:36:05.005Z,101429.91
2023-03-29T11:38:38.511Z,101428.59
2023-03-29T11:41:14.056Z,101423.91
2023-03-29T11:43:43.144Z,101412.13
2023-03-29T11:46:26.543Z,101411.19
2023-03-29T11:49:00.585Z,101418.22
2023-03-29T11:51:32.869Z,101413.00
2023-03-29T11:54:03.620Z,101408.53
2023-03-29T11:56:39.924Z,101401.34
2023-03-29T11:59:13.328Z,101403.09
2023-03-29T12:01:45.251Z,101404.91
2023-03-29T12:04:23.090Z,101398.44
2023-03-29T12:06:57.383Z,101394.03
2023-03-29T12:09:24.516Z,101389.38
2023-03-29T12:11:51.558Z,101377.44
2023-03-29T12:14:25.469Z,101369.19
2023-03-29T12:21:01.788Z,101370.91
2023-03-29T12:23:32.200Z,101364.25
2023-03-29T12:26:24.832Z,101363.69
2023-03-29T12:29:10.574Z,101360.84
2023-03-29T12:32:08.680Z,101359.84
2023-03-29T12:34:43.916Z,101351.81
2023-03-29T12:37:58.754Z,101363.81
2023-03-29T12:40:46.245Z,101347.16
2023-03-29T12:43:39.323Z,101348.19
2023-03-29T12:46:26.820Z,101348.75
2023-03-29T12:48:58.202Z,101350.50
2023-03-29T12:51:33.470Z,101350.41
2023-03-29T12:54:20.940Z,101349.38
2023-03-29T12:56:56.840Z,101340.28
2023-03-29T12:59:25.407Z,101341.63
2023-03-29T13:01:57.943Z,101333.34
2023-03-29T13:12:05.452Z,101312.78
2023-03-29T13:14:35.321Z,101309.50
2023-03-29T13:17:22.652Z,101312.19
2023-03-29T13:20:20.739Z,101291.63
2023-03-29T13:26:44.925Z,101290.09
2023-03-29T13:29:30.239Z,101285.47
2023-03-29T13:32:02.134Z,101274.59
2023-03-29T13:34:29.331Z,101285.16
2023-03-29T13:37:15.255Z,101279.06
2023-03-29T13:43:20.513Z,101258.25
2023-03-29T13:45:56.663Z,101252.13
2023-03-29T13:48:28.723Z,101254.66
2023-03-29T13:50:57.244Z,101258.69
2023-03-29T13:53:43.678Z,101270.81
2023-03-29T13:56:15.705Z,101261.03
2023-03-29T13:58:48.277Z,101260.31
2023-03-29T14:01:22.615Z,101252.00
2023-03-29T14:03:55.360Z,101257.66
2023-03-29T14:06:26.974Z,101245.25
2023-03-29T14:08:58.549Z,101244.28
2023-03-29T14:11:28.585Z,101241.91
2023-03-29T14:13:59.865Z,101247.16
2023-03-29T14:16:28.606Z,101246.72
2023-03-29T14:18:58.757Z,101250.53
2023-03-29T14:21:26.333Z,101240.06
2023-03-29T14:24:00.144Z,101234.06
2023-03-29T14:26:31.475Z,101239.41
2023-03-29T14:29:01.429Z,101227.13
2023-03-29T14:31:33.399Z,101233.16
2023-03-29T14:34:01.520Z,101229.72
2023-03-29T14:36:30.056Z,101232.19
2023-03-29T14:38:59.842Z,101237.00
2023-03-29T14:41:34.951Z,101241.47
2023-03-29T14:44:03.631Z,101234.72
2023-03-29T14:46:34.864Z,101227.50
2023-03-29T14:49:02.526Z,101230.69
2023-03-29T14:51:31.292Z,101228.22
2023-03-29T14:53:59.329Z,101222.66
2023-03-29T14:56:27.328Z,101213.47
2023-03-29T14:58:55.955Z,101201.97
2023-03-29T15:01:24.997Z,101192.06
2023-03-29T15:03:56.893Z,101188.06
2023-03-29T15:06:25.064Z,101176.06
2023-03-29T15:09:04.325Z,101176.19
2023-03-29T15:11:34.502Z,101168.03
2023-03-29T15:14:05.816Z,101173.44
2023-03-29T15:16:33.783Z,101175.53
2023-03-29T15:19:02.208Z,101167.06
2023-03-29T15:21:32.252Z,101163.75
2023-03-29T15:24:00.409Z,101162.97
2023-03-29T15:26:31.269Z,101161.56
2023-03-29T15:29:12.863Z,101158.94
2023-03-29T15:31:42.416Z,101153.00
2023-03-29T15:34:13.201Z,101151.28
2023-03-29T15:36:45.449Z,101158.44
2023-03-29T15:39:17.412Z,101145.63
2023-03-29T15:41:45.303Z,101140.50
2023-03-29T15:44:15.506Z,101143.25
2023-03-29T15:46:42.700Z,101132.66
2023-03-29T15:49:13.542Z,101121.50
2023-03-29T15:51:41.187Z,101118.41
2023-03-29T15:54:09.482Z,101108.34
2023-03-29T15:56:43.861Z,101110.50
2023-03-29T15:59:12.067Z,101107.16
2023-03-29T16:01:39.757Z,101104.28
2023-03-29T16:04:08.055Z,101098.03
2023-03-29T16:06:35.177Z,101096.19
2023-03-29T16:09:02.529Z,101095.25
2023-03-29T16:11:29.674Z,101078.44
2023-03-29T16:13:57.233Z,101071.75
2023-03-29T16:16:28.794Z,101063.94
2023-03-29T16:18:56.233Z,101057.13
2023-03-29T16:21:27.583Z,101045.22
2023-03-29T16:23:54.992Z,101045.63
2023-03-29T16:26:22.535Z,101037.25
2023-03-29T16:28:49.917Z,101031.56
2023-03-29T16:31:17.160Z,101036.53
2023-03-29T16:33:44.354Z,101035.06
2023-03-29T16:36:11.861Z,101031.59
2023-03-29T16:38:38.996Z,101025.78
2023-03-29T16:41:07.456Z,101017.06
2023-03-29T16:43:35.574Z,101015.75
2023-03-29T16:46:02.868Z,101016.94
2023-03-29T16:48:30.040Z,101017.97
2023-03-29T16:50:57.196Z,101014.72
2023-03-29T16:53:24.208Z,101022.56
2023-03-29T16:55:51.212Z,101008.56
2023-03-29T16:58:18.845Z,101018.50
2023-03-29T17:00:48.161Z,101017.06
2023-03-29T17:03:16.492Z,101016.47
2023-03-29T17:05:47.316Z,101013.09
2023-03-29T17:08:14.316Z,101010.50
2023-03-29T17:10:41.735Z,101015.97
2023-03-29T17:13:09.750Z,101011.03
2023-03-29T17:15:39.695Z,101005.06
2023-03-29T17:18:10.741Z,101008.09
2023-03-29T17:20:41.223Z,101002.34
2023-03-29T17:23:09.127Z,100999.09
2023-03-29T17:25:36.560Z,100995.16
2023-03-29T17:28:03.695Z,100980.44
2023-03-29T17:30:30.846Z,100980.69
2023-03-29T17:32:57.826Z,100970.38
2023-03-29T17:35:24.919Z,100972.47
2023-03-29T17:37:51.922Z,100966.47
2023-03-29T17:40:19.120Z,100965.78
2023-03-29T17:42:48.058Z,100961.69
2023-03-29T17:45:15.910Z,100964.63
2023-03-29T17:47:43.098Z,100964.97
2023-03-29T17:50:13.314Z,100969.72
2023-03-29T17:52:46.665Z,100970.03
2023-03-29T17:55:14.295Z,100968.56
2023-03-29T17:57:42.842Z,100966.00
2023-03-29T18:00:13.124Z,100968.81
2023-03-29T18:02:44.266Z,100961.91
2023-03-29T18:05:11.798Z,100960.34
2023-03-29T18:07:38.885Z,100955.13
2023-03-29T18:10:06.734Z,100954.56
2023-03-29T18:12:37.906Z,100945.31
2023-03-29T18:15:05.378Z,100947.13
2023-03-29T18:17:32.417Z,100941.13
2023-03-29T18:19:59.508Z,100946.56
2023-03-29T18:22:26.551Z,100954.69
2023-03-29T18:24:55.103Z,100952.13
2023-03-29T18:27:22.134Z,100953.13
2023-03-29T18:29:49.357Z,100954.94
2023-03-29T18:32:16.620Z,100954.94
2023-03-29T18:34:43.833Z,100957.63
2023-03-29T18:37:15.165Z,100963.06
2023-03-29T18:39:42.238Z,100963.22
2023-03-29T18:42:11.638Z,100959.03
2023-03-29T18:44:40.525Z,100964.50
2023-03-29T18:47:07.590Z,100957.59
2023-03-29T18:49:34.775Z,100965.63
2023-03-29T18:52:02.347Z,100965.63
2023-03-29T18:54:29.438Z,100963.97
2023-03-29T19:01:05.490Z,100972.03
2023-03-29T19:03:33.460Z,100970.34
2023-03-29T19:06:02.086Z,100973.91
2023-03-29T19:08:29.620Z,100980.06
2023-03-29T19:11:04.504Z,100985.41
2023-03-29T19:13:31.692Z,100984.59
2023-03-29T19:15:58.784Z,100989.94
2023-03-29T19:18:26.501Z,100978.56
2023-03-29T19:21:03.095Z,100980.34
2023-03-29T19:23:30.705Z,100981.28
2023-03-29T19:25:58.700Z,100983.06
2023-03-29T19:28:26.178Z,100987.59
2023-03-29T19:30:53.680Z,100989.34
2023-03-29T19:33:21.417Z,100992.06
2023-03-29T19:35:50.672Z,100994.81
2023-03-29T19:38:26.424Z,100988.69
2023-03-29T19:40:58.055Z,100994.03
2023-03-29T19:43:26.214Z,100993.19
2023-03-29T19:45:53.832Z,100999.41
2023-03-29T19:48:24.344Z,100999.41
2023-03-29T19:50:52.570Z,100997.53
2023-03-29T19:53:19.516Z,100995.81
2023-03-29T19:55:46.622Z,101001.19
2023-03-29T19:58:13.859Z,100995.06
2023-03-29T20:00:41.987Z,101004.81
2023-03-29T20:03:14.107Z,100989.03
2023-03-29T20:05:41.852Z,101000.44
2023-03-29T20:08:09.126Z,101004.03
2023-03-29T20:10:36.609Z,101001.41
2023-03-29T20:13:05.860Z,100997.06
2023-03-29T20:15:32.981Z,100993.50
2023-03-29T20:18:00.628Z,100994.44
2023-03-29T20:20:31.776Z,100992.72
2023-03-29T20:23:04.701Z,100990.94
2023-03-29T20:25:34.654Z,100980.34
2023-03-29T20:28:01.668Z,100982.22
2023-03-29T20:30:28.971Z,100991.09
2023-03-29T20:32:56.305Z,100981.47
2023-03-29T20:35:23.481Z,100984.94
2023-03-29T20:37:53.764Z,100992.06
2023-03-29T20:40:36.687Z,101006.22
2023-03-29T20:43:03.980Z,101043.13
2023-03-29T20:45:35.163Z,101053.19
2023-03-29T20:48:09.990Z,101062.38
2023-03-29T20:50:40.581Z,101082.88
2023-03-29T20:53:08.047Z,101107.69
2023-03-29T20:55:39.137Z,101114.50
2023-03-29T20:58:06.552Z,101124.25
2023-03-29T21:00:39.163Z,101123.56
2023-03-29T21:03:09.120Z,101128.78
2023-03-29T21:05:39.181Z,101138.84
2023-03-29T21:08:09.757Z,101136.34
2023-03-29T21:10:38.139Z,101134.75
2023-03-29T21:13:06.372Z,101134.81
2023-03-29T21:15:33.947Z,101137.63
2023-03-29T21:18:01.027Z,101150.06
2023-03-29T21:20:36.553Z,101175.78
2023-03-29T21:23:04.156Z,101176.78
2023-03-29T21:25:32.205Z,101186.53
2023-03-29T21:28:00.049Z,101189.25
2023-03-29T21:30:29.430Z,101184.84
2023-03-29T21:32:57.783Z,101191.03
2023-03-29T21:35:26.225Z,101188.34
2023-03-29T21:37:54.082Z,101200.63
2023-03-29T21:40:25.168Z,101203.28
2023-03-29T21:42:59.008Z,101198.88
2023-03-29T21:45:27.079Z,101198.03
2023-03-29T21:47:54.864Z,101219.22
2023-03-29T21:50:22.394Z,101222.78
2023-03-29T21:52:49.942Z,101227.22
2023-03-29T21:55:17.128Z,101222.84
2023-03-29T21:57:44.159Z,101238.75
2023-03-29T22:00:13.187Z,101251.97
2023-03-29T22:02:41.616Z,101261.66
2023-03-29T22:05:09.710Z,101261.66
2023-03-29T22:07:39.138Z,101232.63
2023-03-29T22:10:08.808Z,101237.91
2023-03-29T22:12:37.939Z,101255.47
2023-03-29T22:15:06.996Z,101258.09
2023-03-29T22:17:36.805Z,101262.50
2023-03-29T22:20:14.873Z,101270.41
2023-03-29T22:22:46.736Z,101280.06
2023-03-29T22:25:27.571Z,101279.19
2023-03-29T22:28:06.980Z,101285.34
2023-03-29T22:30:36.527Z,101280.94
2023-03-29T22:33:04.787Z,101274.75
2023-03-29T22:35:33.913Z,101306.38
2023-03-29T22:38:02.125Z,101315.16
2023-03-29T22:40:31.081Z,101319.50
2023-03-29T22:42:58.125Z,101311.59
2023-03-29T22:45:25.196Z,101323.84
2023-03-29T22:47:52.392Z,101324.75
2023-03-29T22:50:19.445Z,101320.31
2023-03-29T22:52:46.666Z,101320.31
2023-03-29T22:55:13.889Z,101318.50
2023-03-29T22:57:41.016Z,101304.38
2023-03-29T23:00:09.504Z,101321.06
2023-03-29T23:02:37.149Z,101326.25
2023-03-29T23:05:04.339Z,101322.69
2023-03-29T23:07:31.257Z,101334.09
2023-03-29T23:09:58.408Z,101326.19
2023-03-29T23:12:25.538Z,101328.78
2023-03-29T23:14:53.191Z,101316.53
2023-03-29T23:17:20.764Z,101314.69
2023-03-29T23:19:48.194Z,101319.91
2023-03-29T23:22:15.241Z,101331.28
2023-03-29T23:24:43.841Z,101330.38
2023-03-29T23:27:11.343Z,101328.56
2023-03-29T23:29:41.265Z,101328.53
2023-03-29T23:32:08.834Z,101322.38
2023-03-29T23:34:36.109Z,101315.31
2023-03-29T23:37:03.637Z,101314.34
2023-03-29T23:39:32.057Z,101320.47
2023-03-29T23:41:59.675Z,101324.75
2023-03-29T23:44:27.327Z,101318.53
2023-03-29T23:46:55.126Z,101311.50
2023-03-29T23:49:23.332Z,101312.28
2023-03-29T23:51:51.085Z,101323.63
2023-03-29T23:54:18.690Z,101343.66
2023-03-29T23:56:46.116Z,101336.59
2023-03-29T23:59:13.324Z,101347.06
